Non classé.

Afficher tous les 2 résultats

METAR :

LFQA 261000Z AUTO 34008KT 320V020 9999 FEW015/// BKN060/// OVC082/// ///TCU 09/07 Q1034


vue en direct sur l'aérodrome
mentions légales politique de confidentialité
Cochet Concept
cx